Time;durP1;ratioP1;P1;durP2;ratioP2;P2;SDS_P1;SDS_P2;PMS_P1;PMS_P2;Temp;Humidity;BMP_temperature;BMP_pressure;BME280_temperature;BME280_humidity;BME280_pressure;Samples;Min_cycle;Max_cycle;Signal;HPM_P1;HPM_P2
2022/08/26 00:01:14;;;;;;;13.63;12.23;;;24.80;92.10;;;;;;5000410;28;20428;-66
2022/08/26 00:03:40;;;;;;;13.50;12.43;;;24.80;92.10;;;;;;5000799;28;20223;-66
2022/08/26 00:06:07;;;;;;;12.67;11.57;;;24.90;92.80;;;;;;5000564;28;20430;-67
2022/08/26 00:08:33;;;;;;;14.83;11.43;;;24.80;92.20;;;;;;5004106;28;20902;-68
2022/08/26 00:11:00;;;;;;;13.13;11.93;;;24.80;92.10;;;;;;5009892;28;20768;-66
2022/08/26 00:13:26;;;;;;;13.90;12.50;;;24.80;92.20;;;;;;4996994;28;20448;-67
2022/08/26 00:15:52;;;;;;;12.20;11.10;;;24.80;92.30;;;;;;4957445;28;20431;-66
2022/08/26 00:18:19;;;;;;;12.53;11.53;;;24.80;92.40;;;;;;5010678;28;20432;-66
2022/08/26 00:20:44;;;;;;;13.07;12.07;;;24.80;92.30;;;;;;5001027;28;20438;-66
2022/08/26 00:23:10;;;;;;;12.67;11.67;;;24.70;92.90;;;;;;4992229;28;20466;-66
2022/08/26 00:25:36;;;;;;;13.30;11.90;;;24.70;92.60;;;;;;4998617;28;20269;-67
2022/08/26 00:28:04;;;;;;;13.60;12.30;;;24.60;92.40;;;;;;5011651;28;20536;-66
2022/08/26 00:30:33;;;;;;;13.83;12.73;;;24.60;93.00;;;;;;4997545;28;20431;-72
2022/08/26 00:32:59;;;;;;;14.80;13.50;;;24.50;92.90;;;;;;5011774;28;20504;-66
2022/08/26 00:35:27;;;;;;;13.37;12.47;;;24.50;92.90;;;;;;5013145;28;20488;-67
2022/08/26 00:37:53;;;;;;;13.73;12.63;;;24.50;93.20;;;;;;4999615;28;20422;-67
2022/08/26 00:40:27;;;;;;;13.43;12.43;;;24.50;93.40;;;;;;5016129;28;20421;-66
2022/08/26 00:42:54;;;;;;;14.50;13.40;;;24.40;93.60;;;;;;5010162;28;20439;-67
2022/08/26 00:45:20;;;;;;;15.33;14.10;;;24.40;93.50;;;;;;4995555;28;20423;-67
2022/08/26 00:47:50;;;;;;;14.73;13.53;;;24.40;93.40;;;;;;5000367;28;20449;-67
2022/08/26 00:50:21;;;;;;;16.00;14.60;;;24.40;93.60;;;;;;5005558;28;20874;-67
2022/08/26 00:52:48;;;;;;;15.47;14.17;;;24.30;93.80;;;;;;5002731;28;20435;-66
2022/08/26 00:55:24;;;;;;;15.50;14.40;;;24.30;93.60;;;;;;5005293;28;20403;-67
2022/08/26 00:57:52;;;;;;;15.13;13.77;;;24.30;93.70;;;;;;5002460;28;20456;-67
2022/08/26 01:00:24;;;;;;;16.17;14.87;;;24.30;93.50;;;;;;5003788;28;20407;-68
2022/08/26 01:02:50;;;;;;;16.10;14.30;;;24.30;93.70;;;;;;5001692;28;20556;-66
2022/08/26 01:05:18;;;;;;;14.97;13.57;;;24.30;94.00;;;;;;5004183;28;20506;-66
2022/08/26 01:07:44;;;;;;;14.60;13.50;;;24.30;94.30;;;;;;5001656;28;20773;-66
2022/08/26 01:10:14;;;;;;;14.03;12.93;;;24.30;94.40;;;;;;5003755;28;20410;-66
2022/08/26 01:12:46;;;;;;;14.10;12.90;;;24.30;94.40;;;;;;5002816;28;20784;-67
2022/08/26 01:15:21;;;;;;;14.07;12.87;;;24.20;94.10;;;;;;5005334;28;20448;-66
2022/08/26 01:17:48;;;;;;;15.60;14.20;;;24.20;94.30;;;;;;5013818;28;20413;-66
2022/08/26 01:20:37;;;;;;;14.23;13.03;;;24.10;94.50;;;;;;5005260;28;20446;-66
2022/08/26 01:23:06;;;;;;;14.80;13.50;;;24.10;94.50;;;;;;4994661;28;20460;-66
2022/08/26 01:25:35;;;;;;;14.40;13.20;;;24.10;94.70;;;;;;4994457;28;20419;-72
2022/08/26 01:28:07;;;;;;;15.57;14.07;;;24.10;94.80;;;;;;4997426;28;20430;-66
2022/08/26 01:30:36;;;;;;;14.73;13.33;;;24.10;94.90;;;;;;5013021;28;20458;-71
2022/08/26 01:33:07;;;;;;;13.93;12.63;;;24.10;94.60;;;;;;5014080;28;20453;-66
2022/08/26 01:35:33;;;;;;;15.93;14.70;;;24.00;95.50;;;;;;5013870;28;20425;-71
2022/08/26 01:38:01;;;;;;;14.50;13.10;;;24.10;95.00;;;;;;4998133;28;20435;-66
2022/08/26 01:40:31;;;;;;;15.27;13.63;;;24.10;95.00;;;;;;4993715;28;20180;-66
2022/08/26 01:42:58;;;;;;;14.80;13.60;;;24.00;95.00;;;;;;4993991;28;20465;-66
2022/08/26 01:45:28;;;;;;;14.20;13.00;;;24.10;95.20;;;;;;5010319;28;20434;-66
2022/08/26 01:47:56;;;;;;;14.00;12.67;;;24.00;95.10;;;;;;5013145;28;20409;-66
2022/08/26 01:50:29;;;;;;;14.10;13.00;;;24.00;95.30;;;;;;5013853;28;20410;-66
2022/08/26 01:52:57;;;;;;;16.53;14.90;;;24.00;95.10;;;;;;5013153;28;20586;-66
2022/08/26 01:55:24;;;;;;;14.23;12.93;;;24.00;95.40;;;;;;4994662;28;20465;-66
2022/08/26 01:57:54;;;;;;;14.87;13.67;;;24.10;95.20;;;;;;4993712;28;20508;-66
2022/08/26 02:00:22;;;;;;;14.37;12.97;;;24.00;95.20;;;;;;4994044;28;20447;-66
2022/08/26 02:03:15;;;;;;;13.97;12.70;;;24.00;95.10;;;;;;4993047;28;20512;-66
2022/08/26 02:05:38;;;;;;;15.17;13.30;;;24.00;94.70;;;;;;4992891;28;20946;-68
2022/08/26 02:08:04;;;;;;;24.27;12.83;;;24.00;94.70;;;;;;4976353;28;20434;-66
2022/08/26 02:10:30;;;;;;;13.90;12.80;;;23.90;94.60;;;;;;4995230;28;20437;-66
2022/08/26 02:12:56;;;;;;;14.03;12.83;;;23.90;94.70;;;;;;4993029;28;20505;-67
2022/08/26 02:15:22;;;;;;;13.87;12.77;;;23.90;94.90;;;;;;4959364;28;20652;-66
2022/08/26 02:17:47;;;;;;;15.40;14.20;;;23.90;94.90;;;;;;4992561;28;20226;-66
2022/08/26 02:20:17;;;;;;;14.17;13.07;;;23.80;95.10;;;;;;4994111;28;20179;-66
2022/08/26 02:22:44;;;;;;;13.00;12.00;;;23.80;95.60;;;;;;4993101;28;20258;-67
2022/08/26 02:25:23;;;;;;;13.17;12.00;;;23.80;95.80;;;;;;5013150;28;20426;-66
2022/08/26 02:27:50;;;;;;;13.43;12.03;;;23.80;95.40;;;;;;5012495;28;20441;-66
2022/08/26 02:30:31;;;;;;;14.10;13.00;;;23.70;95.40;;;;;;5012942;28;20781;-67
2022/08/26 02:33:03;;;;;;;14.40;13.20;;;23.70;95.50;;;;;;5012520;28;21067;-66
2022/08/26 02:35:31;;;;;;;14.73;13.60;;;23.70;95.50;;;;;;5005732;28;20435;-66
2022/08/26 02:37:57;;;;;;;14.53;13.43;;;23.60;95.50;;;;;;4992644;28;20529;-66
2022/08/26 02:40:26;;;;;;;14.77;13.67;;;23.60;95.60;;;;;;4993544;28;20947;-66
2022/08/26 02:42:52;;;;;;;13.20;11.97;;;23.70;95.90;;;;;;4992487;28;20489;-66
2022/08/26 02:45:17;;;;;;;13.30;12.30;;;23.70;95.70;;;;;;4993577;28;20422;-66
2022/08/26 02:47:44;;;;;;;13.10;12.10;;;23.70;95.20;;;;;;4992441;28;20176;-66
2022/08/26 02:50:10;;;;;;;12.43;11.33;;;23.70;95.20;;;;;;4992976;28;20184;-66
2022/08/26 02:52:36;;;;;;;13.07;11.73;;;23.80;95.00;;;;;;4993621;28;20810;-66
2022/08/26 02:55:03;;;;;;;12.43;11.33;;;23.80;94.90;;;;;;4992562;28;20241;-66
2022/08/26 02:57:29;;;;;;;12.87;11.77;;;23.80;95.00;;;;;;4993370;28;20521;-66
2022/08/26 02:59:55;;;;;;;14.57;13.37;;;23.80;95.30;;;;;;4992247;28;20419;-66
2022/08/26 03:02:21;;;;;;;14.03;12.67;;;23.80;95.50;;;;;;4992608;28;20458;-66
2022/08/26 03:04:47;;;;;;;13.87;12.60;;;23.80;95.70;;;;;;4992206;28;20240;-66
2022/08/26 03:07:13;;;;;;;13.60;12.23;;;23.70;96.10;;;;;;4993068;28;20450;-66
2022/08/26 03:09:39;;;;;;;14.20;12.90;;;23.70;95.60;;;;;;4993013;28;20183;-71
2022/08/26 03:12:05;;;;;;;13.27;12.17;;;23.60;95.60;;;;;;4992712;28;20462;-66
2022/08/26 03:14:31;;;;;;;13.50;12.50;;;23.50;95.90;;;;;;5007983;28;20934;-66
2022/08/26 03:16:56;;;;;;;14.67;13.17;;;23.50;96.00;;;;;;5011656;28;20949;-66
2022/08/26 03:19:24;;;;;;;12.80;11.70;;;23.50;96.40;;;;;;5012286;28;20265;-66
2022/08/26 03:21:51;;;;;;;12.73;11.63;;;23.50;96.40;;;;;;5011598;28;20178;-66
2022/08/26 03:24:17;;;;;;;13.77;12.67;;;23.50;96.30;;;;;;5012299;28;20461;-66
2022/08/26 03:26:43;;;;;;;12.80;11.80;;;23.40;96.20;;;;;;4992562;28;20427;-67
2022/08/26 03:31:54;;;;;;;11.87;10.87;;;23.40;96.50;;;;;;4992219;28;20427;-66
2022/08/26 03:34:20;;;;;;;13.20;11.83;;;23.30;96.40;;;;;;4992695;28;20431;-69
2022/08/26 03:36:45;;;;;;;12.60;11.60;;;23.30;96.50;;;;;;5011265;28;20837;-66
2022/08/26 03:39:12;;;;;;;12.30;11.30;;;23.30;96.50;;;;;;5012198;28;20415;-66
2022/08/26 03:41:39;;;;;;;12.50;11.27;;;23.40;96.40;;;;;;4997054;28;20215;-66
2022/08/26 03:44:07;;;;;;;13.30;12.10;;;23.40;96.30;;;;;;4995492;28;20473;-66
2022/08/26 03:46:34;;;;;;;13.97;12.77;;;23.40;96.60;;;;;;5008416;28;20518;-67
2022/08/26 03:49:01;;;;;;;16.10;14.70;;;23.40;96.40;;;;;;5001816;28;20505;-66
2022/08/26 03:51:27;;;;;;;13.80;12.47;;;23.50;96.70;;;;;;5003183;28;20757;-67
2022/08/26 03:53:53;;;;;;;13.33;12.27;;;23.50;96.60;;;;;;5000763;28;20526;-67
2022/08/26 03:56:19;;;;;;;14.43;13.27;;;23.50;96.60;;;;;;4998900;28;20958;-66
2022/08/26 03:58:46;;;;;;;14.83;13.63;;;23.50;96.60;;;;;;4983998;28;20528;-67
2022/08/26 04:01:13;;;;;;;19.03;17.53;;;23.50;96.80;;;;;;5011698;28;20183;-66
2022/08/26 04:03:57;;;;;;;17.97;16.17;;;23.60;97.00;;;;;;5012847;28;20517;-66
2022/08/26 04:06:42;;;;;;;20.73;18.90;;;23.60;96.80;;;;;;5014989;28;20410;-66
2022/08/26 04:09:28;;;;;;;20.40;18.47;;;23.60;97.40;;;;;;5015489;28;20421;-66
2022/08/26 04:11:54;;;;;;;23.73;21.70;;;23.70;97.80;;;;;;5006293;28;20430;-66
2022/08/26 04:14:22;;;;;;;22.30;19.93;;;23.70;97.60;;;;;;5004790;28;20470;-66
2022/08/26 04:16:49;;;;;;;21.73;19.73;;;23.70;97.60;;;;;;5005187;28;20428;-67
2022/08/26 04:19:16;;;;;;;25.10;22.80;;;23.70;97.50;;;;;;5015623;28;20856;-66
2022/08/26 04:21:43;;;;;;;22.77;20.57;;;23.70;97.70;;;;;;5014940;28;20491;-71
2022/08/26 04:24:11;;;;;;;23.83;21.47;;;23.70;97.60;;;;;;4964325;28;20472;-66
2022/08/26 04:26:37;;;;;;;22.73;20.63;;;23.70;97.80;;;;;;5015487;28;20504;-66
2022/08/26 04:29:08;;;;;;;26.70;24.20;;;23.70;97.90;;;;;;5013756;28;20409;-69
2022/08/26 04:31:35;;;;;;;27.43;24.87;;;23.70;98.20;;;;;;5008524;28;20508;-66
2022/08/26 04:34:01;;;;;;;25.93;23.63;;;23.70;98.30;;;;;;5009354;28;20438;-66
2022/08/26 04:36:27;;;;;;;26.80;24.00;;;23.70;98.50;;;;;;5015248;28;20770;-66
2022/08/26 04:38:53;;;;;;;25.27;22.87;;;23.70;98.40;;;;;;5014469;28;20418;-66
2022/08/26 04:41:19;;;;;;;28.50;25.60;;;23.60;98.50;;;;;;5014868;28;20456;-67
2022/08/26 04:43:46;;;;;;;29.43;26.53;;;23.60;98.50;;;;;;5012760;28;20504;-70
2022/08/26 04:46:14;;;;;;;31.57;28.47;;;23.60;98.40;;;;;;5013829;28;20175;-67
2022/08/26 04:48:41;;;;;;;36.43;33.03;;;23.60;98.90;;;;;;5014098;28;20837;-67
2022/08/26 04:51:07;;;;;;;36.37;32.87;;;23.60;99.30;;;;;;5012417;28;20797;-67
2022/08/26 04:53:33;;;;;;;37.80;34.20;;;23.60;99.60;;;;;;5015339;28;20517;-66
2022/08/26 04:55:58;;;;;;;40.27;36.47;;;23.50;99.90;;;;;;5014627;28;20576;-67
2022/08/26 04:58:24;;;;;;;48.03;43.23;;;23.50;99.90;;;;;;5013952;28;20183;-66
2022/08/26 05:00:52;;;;;;;47.63;42.87;;;23.50;99.90;;;;;;5013938;28;20310;-67
2022/08/26 05:03:19;;;;;;;45.20;40.90;;;23.40;99.90;;;;;;5013153;28;20222;-67
2022/08/26 05:05:48;;;;;;;42.60;38.70;;;23.40;99.90;;;;;;4997124;28;20661;-67
2022/08/26 05:08:15;;;;;;;44.83;40.70;;;23.30;99.90;;;;;;5003484;28;20453;-66
2022/08/26 05:10:44;;;;;;;47.17;42.50;;;23.30;99.90;;;;;;5014014;28;21056;-67
2022/08/26 05:13:11;;;;;;;42.53;38.20;;;23.30;99.90;;;;;;5010530;28;20911;-67
2022/08/26 05:15:37;;;;;;;48.27;43.47;;;23.20;99.90;;;;;;5001881;28;20512;-67
2022/08/26 05:18:05;;;;;;;50.90;45.80;;;23.30;99.90;;;;;;5004336;28;20518;-67
2022/08/26 05:20:31;;;;;;;52.90;47.10;;;23.30;99.90;;;;;;5012878;28;20196;-67
2022/08/26 05:23:00;;;;;;;51.73;46.40;;;23.30;99.90;;;;;;5008583;28;20423;-67
2022/08/26 05:25:27;;;;;;;52.20;47.07;;;23.30;99.90;;;;;;4995041;28;20411;-67
2022/08/26 05:27:53;;;;;;;54.10;48.77;;;23.30;99.90;;;;;;4994195;28;20906;-67
2022/08/26 05:30:19;;;;;;;59.80;53.40;;;23.30;99.90;;;;;;4994773;28;20426;-70
2022/08/26 05:32:48;;;;;;;57.07;51.20;;;23.40;99.90;;;;;;5012742;28;20191;-71
2022/08/26 05:35:14;;;;;;;61.47;53.50;;;23.40;99.90;;;;;;5014026;28;20238;-67
2022/08/26 05:37:40;;;;;;;62.03;55.73;;;23.40;99.90;;;;;;5013548;28;20434;-67
2022/08/26 05:40:06;;;;;;;48.03;42.93;;;23.50;99.90;;;;;;5011518;28;20426;-67
2022/08/26 05:42:32;;;;;;;61.07;53.27;;;23.50;99.90;;;;;;5013438;28;20191;-67
2022/08/26 05:44:58;;;;;;;61.83;54.27;;;23.50;99.90;;;;;;5013045;28;20467;-67
2022/08/26 05:47:25;;;;;;;67.60;59.30;;;23.50;99.90;;;;;;4996763;28;20737;-67
2022/08/26 05:49:51;;;;;;;64.57;55.43;;;23.60;99.90;;;;;;5012145;28;20236;-68
2022/08/26 05:52:17;;;;;;;63.63;55.70;;;23.60;99.90;;;;;;5013750;28;20829;-67
2022/08/26 05:54:43;;;;;;;64.13;57.20;;;23.60;99.90;;;;;;5013481;28;20422;-67
2022/08/26 05:57:11;;;;;;;70.37;57.00;;;23.60;99.90;;;;;;5012659;28;20467;-67
2022/08/26 05:59:37;;;;;;;59.80;51.37;;;23.60;99.90;;;;;;5012018;28;20649;-67
2022/08/26 06:02:04;;;;;;;69.90;57.37;;;23.60;99.90;;;;;;5007307;28;20448;-67
2022/08/26 06:04:30;;;;;;;67.00;54.40;;;23.60;99.90;;;;;;5005039;28;20458;-67
2022/08/26 06:06:56;;;;;;;78.57;59.70;;;23.70;99.90;;;;;;5013455;28;20932;-67
2022/08/26 06:09:22;;;;;;;71.33;55.50;;;23.70;99.90;;;;;;5012002;28;20182;-66
2022/08/26 06:11:48;;;;;;;67.57;54.37;;;23.70;99.90;;;;;;4941016;28;21057;-68
2022/08/26 06:14:14;;;;;;;71.03;54.67;;;23.80;99.90;;;;;;4991557;28;20513;-68
2022/08/26 06:16:43;;;;;;;69.37;55.20;;;23.90;99.90;;;;;;5013789;28;20642;-68
2022/08/26 06:19:11;;;;;;;66.77;53.10;;;24.10;99.90;;;;;;5013135;28;20174;-68
2022/08/26 06:21:38;;;;;;;70.70;57.87;;;24.20;99.90;;;;;;5013924;28;20432;-67
2022/08/26 06:26:54;;;;;;;69.33;55.20;;;24.50;99.90;;;;;;5012246;28;20433;-71
2022/08/26 06:29:23;;;;;;;57.53;49.30;;;24.60;99.90;;;;;;5004046;28;20516;-67
2022/08/26 06:31:48;;;;;;;76.77;59.47;;;24.70;99.90;;;;;;4999310;28;20439;-72
2022/08/26 06:34:14;;;;;;;67.90;54.97;;;24.70;99.90;;;;;;4991384;28;20432;-68
2022/08/26 06:36:42;;;;;;;66.53;54.97;;;24.80;99.90;;;;;;5006412;28;20225;-68
2022/08/26 06:39:11;;;;;;;48.87;42.10;;;24.80;99.90;;;;;;5005619;28;20191;-67
2022/08/26 06:41:37;;;;;;;46.57;39.90;;;24.80;99.90;;;;;;4962390;28;20433;-66
2022/08/26 06:44:05;;;;;;;57.40;47.37;;;24.90;99.90;;;;;;5012549;28;20458;-66
2022/08/26 06:46:32;;;;;;;55.50;45.80;;;24.90;99.90;;;;;;5012915;28;20424;-66
2022/08/26 06:48:58;;;;;;;48.67;42.53;;;24.90;99.90;;;;;;5012684;28;20838;-67
2022/08/26 06:51:27;;;;;;;69.30;55.63;;;24.90;99.90;;;;;;5013055;28;20440;-67
2022/08/26 06:53:54;;;;;;;59.40;50.90;;;25.00;99.90;;;;;;4960317;28;20828;-70
2022/08/26 06:56:24;;;;;;;73.30;58.37;;;25.00;99.90;;;;;;5010988;28;20449;-69
2022/08/26 06:58:50;;;;;;;66.33;53.50;;;25.10;99.90;;;;;;5009153;28;20442;-71
2022/08/26 07:01:21;;;;;;;68.40;55.90;;;25.00;99.90;;;;;;5011197;28;20464;-67
2022/08/26 07:03:49;;;;;;;65.33;55.37;;;24.90;99.90;;;;;;5012579;28;20831;-67
2022/08/26 07:06:18;;;;;;;54.43;44.70;;;24.90;99.90;;;;;;5012397;28;20417;-67
2022/08/26 07:08:44;;;;;;;51.93;45.23;;;25.00;99.90;;;;;;5013013;28;20425;-67
2022/08/26 07:11:11;;;;;;;53.27;44.70;;;25.00;99.90;;;;;;5012442;28;20480;-67
2022/08/26 07:13:37;;;;;;;60.37;52.30;;;25.00;99.90;;;;;;5012576;28;20426;-67
2022/08/26 07:16:08;;;;;;;55.03;48.40;;;25.10;99.90;;;;;;5012331;28;20418;-67
2022/08/26 07:18:35;;;;;;;58.40;50.10;;;25.10;99.90;;;;;;5012592;28;20414;-67
2022/08/26 07:21:04;;;;;;;58.27;51.57;;;25.10;99.90;;;;;;5012273;28;20581;-67
2022/08/26 07:23:30;;;;;;;61.50;53.87;;;25.10;99.90;;;;;;5011685;28;20472;-67
2022/08/26 07:25:56;;;;;;;61.90;52.00;;;25.10;99.90;;;;;;5012286;28;20414;-67
2022/08/26 07:28:22;;;;;;;62.70;53.13;;;25.10;99.90;;;;;;5011949;28;20925;-67
2022/08/26 07:30:48;;;;;;;58.13;49.43;;;25.10;99.90;;;;;;5012511;28;20171;-67
2022/08/26 07:33:13;;;;;;;51.20;45.53;;;25.10;99.90;;;;;;5012650;28;20194;-67
2022/08/26 07:35:40;;;;;;;55.37;49.40;;;25.10;99.90;;;;;;5012689;28;20179;-67
2022/08/26 07:38:06;;;;;;;48.67;43.37;;;25.10;99.90;;;;;;4995999;28;20209;-67
2022/08/26 07:40:32;;;;;;;56.03;47.67;;;25.10;99.90;;;;;;5013443;28;20437;-69
2022/08/26 07:42:58;;;;;;;54.07;48.27;;;25.10;99.90;;;;;;4995768;28;20546;-67
2022/08/26 07:45:24;;;;;;;52.97;47.07;;;25.00;99.90;;;;;;5014962;28;20484;-68
2022/08/26 07:47:50;;;;;;;49.17;43.87;;;25.00;99.90;;;;;;5016418;28;20410;-68
2022/08/26 07:50:16;;;;;;;52.70;43.13;;;25.10;99.90;;;;;;5014935;28;20444;-67
2022/08/26 07:52:42;;;;;;;50.07;44.67;;;25.10;99.90;;;;;;5012893;28;20218;-70
2022/08/26 07:55:08;;;;;;;48.40;43.37;;;25.10;99.90;;;;;;5013273;28;20631;-67
2022/08/26 07:57:34;;;;;;;50.93;45.23;;;25.20;99.90;;;;;;5015566;28;20194;-67
2022/08/26 08:00:01;;;;;;;49.27;44.37;;;25.20;99.90;;;;;;5015821;28;20802;-68
2022/08/26 08:02:28;;;;;;;46.33;41.40;;;25.20;99.90;;;;;;5012383;28;20513;-71
2022/08/26 08:04:55;;;;;;;48.77;43.60;;;25.20;99.80;;;;;;5005459;28;20465;-73
2022/08/26 08:07:21;;;;;;;51.00;44.57;;;25.30;99.70;;;;;;5007762;28;20432;-72
2022/08/26 08:09:48;;;;;;;45.43;40.67;;;25.30;99.60;;;;;;5011305;28;20471;-71
2022/08/26 08:12:16;;;;;;;47.63;42.50;;;25.30;99.60;;;;;;5011238;28;20475;-72
2022/08/26 08:14:44;;;;;;;49.10;44.00;;;25.30;99.60;;;;;;5012613;28;20487;-71
2022/08/26 08:17:10;;;;;;;47.30;42.30;;;25.30;99.90;;;;;;5006502;28;20459;-72
2022/08/26 08:19:36;;;;;;;45.23;40.53;;;25.30;99.70;;;;;;5008620;28;20567;-72
2022/08/26 08:22:03;;;;;;;45.63;41.00;;;25.30;99.60;;;;;;5005262;28;20969;-72
2022/08/26 08:24:32;;;;;;;44.23;39.80;;;25.30;99.80;;;;;;5008154;28;20560;-71
2022/08/26 08:27:01;;;;;;;48.73;43.57;;;25.30;99.40;;;;;;5005233;28;20472;-72
2022/08/26 08:29:28;;;;;;;48.00;42.63;;;25.20;99.40;;;;;;5005132;28;20480;-71
2022/08/26 08:31:57;;;;;;;49.20;44.30;;;25.30;99.60;;;;;;5011715;28;20434;-71
2022/08/26 08:34:25;;;;;;;47.47;42.37;;;25.30;99.30;;;;;;5007638;28;20450;-69
2022/08/26 08:36:50;;;;;;;47.33;42.50;;;25.30;99.40;;;;;;5012871;28;20468;-68
2022/08/26 08:39:16;;;;;;;46.53;41.77;;;25.50;99.20;;;;;;5012065;28;20414;-68
2022/08/26 08:42:04;;;;;;;46.20;41.50;;;25.60;99.00;;;;;;5006151;28;20658;-70
2022/08/26 08:44:32;;;;;;;47.00;42.50;;;25.70;98.80;;;;;;4919726;29;20476;-67
2022/08/26 08:47:02;;;;;;;44.80;40.20;;;25.70;98.80;;;;;;4952200;29;20814;-67
2022/08/26 08:49:29;;;;;;;49.53;44.23;;;25.80;99.10;;;;;;4949567;28;20448;-67
2022/08/26 08:52:18;;;;;;;43.57;39.27;;;25.80;98.90;;;;;;4944206;28;20807;-72
2022/08/26 08:54:44;;;;;;;43.17;38.70;;;25.80;98.90;;;;;;4948740;28;20472;-67
2022/08/26 08:57:16;;;;;;;44.57;40.13;;;25.80;98.70;;;;;;4951210;29;20440;-67
2022/08/26 08:59:52;;;;;;;42.33;37.97;;;25.90;98.70;;;;;;4948720;28;20193;-67
2022/08/26 09:02:41;;;;;;;46.30;41.50;;;25.90;98.60;;;;;;4902023;29;20580;-68
2022/08/26 09:05:21;;;;;;;44.43;40.23;;;26.00;98.50;;;;;;4944421;28;20535;-68
2022/08/26 09:07:56;;;;;;;44.43;40.20;;;26.00;98.40;;;;;;4945079;29;20477;-67
2022/08/26 09:10:38;;;;;;;40.43;36.40;;;26.00;98.40;;;;;;4954835;28;20451;-70
2022/08/26 09:13:08;;;;;;;41.37;37.17;;;26.00;98.30;;;;;;4945235;29;20437;-67
2022/08/26 09:15:49;;;;;;;42.77;38.37;;;26.10;98.10;;;;;;4949977;29;20863;-68
2022/08/26 09:18:29;;;;;;;43.80;39.60;;;26.10;98.20;;;;;;4929249;28;20462;-68
2022/08/26 09:21:04;;;;;;;43.40;38.93;;;26.10;98.10;;;;;;4951216;28;20523;-72
2022/08/26 09:23:40;;;;;;;46.17;41.50;;;26.10;98.10;;;;;;5009585;28;20477;-67
2022/08/26 09:26:38;;;;;;;41.93;37.60;;;26.10;97.90;;;;;;5008728;28;20457;-67
2022/08/26 09:29:12;;;;;;;44.10;39.53;;;26.10;98.00;;;;;;5003933;28;20450;-67
2022/08/26 09:31:39;;;;;;;44.27;39.80;;;26.10;97.90;;;;;;5007504;28;20956;-69
2022/08/26 09:34:24;;;;;;;45.73;40.90;;;26.10;97.80;;;;;;5009877;28;20438;-67
2022/08/26 09:36:52;;;;;;;45.57;41.10;;;26.20;98.00;;;;;;5010594;28;20442;-67
2022/08/26 09:39:26;;;;;;;48.37;43.43;;;26.20;97.80;;;;;;5007764;28;20835;-67
2022/08/26 09:42:21;;;;;;;42.90;38.50;;;26.20;97.80;;;;;;4990864;28;20441;-67
2022/08/26 09:45:09;;;;;;;42.07;37.90;;;26.30;98.00;;;;;;5013434;28;20484;-66
2022/08/26 09:47:46;;;;;;;41.57;37.40;;;26.30;97.80;;;;;;5006802;28;20475;-67
2022/08/26 09:50:25;;;;;;;42.43;37.93;;;26.30;97.70;;;;;;5004860;28;20436;-69
2022/08/26 09:53:16;;;;;;;40.00;36.30;;;26.30;97.80;;;;;;5005078;28;20445;-67
2022/08/26 09:55:44;;;;;;;40.60;36.70;;;26.30;97.80;;;;;;5006020;28;20947;-67
2022/08/26 09:58:32;;;;;;;39.57;35.37;;;26.30;97.50;;;;;;5003894;28;20473;-66
2022/08/26 10:01:00;;;;;;;39.97;36.07;;;26.20;97.30;;;;;;5001420;28;20422;-67
2022/08/26 10:03:31;;;;;;;41.07;36.80;;;26.10;97.50;;;;;;5008373;28;20479;-66
2022/08/26 10:06:21;;;;;;;39.50;35.47;;;26.10;97.50;;;;;;5011118;28;20517;-67
2022/08/26 10:09:07;;;;;;;39.23;35.23;;;26.00;97.60;;;;;;5011272;28;20807;-66
2022/08/26 10:11:39;;;;;;;37.60;34.10;;;25.90;97.70;;;;;;5010906;28;20425;-67
2022/08/26 10:14:31;;;;;;;38.93;35.03;;;25.90;97.60;;;;;;5009173;28;21009;-68
2022/08/26 10:17:13;;;;;;;41.27;37.37;;;25.90;97.50;;;;;;5009364;28;20402;-68
2022/08/26 10:19:47;;;;;;;36.37;33.10;;;26.00;97.40;;;;;;5001970;28;20449;-70
2022/08/26 10:22:49;;;;;;;39.70;36.10;;;26.00;97.30;;;;;;5007192;28;20527;-68
2022/08/26 10:25:22;;;;;;;37.33;33.87;;;26.00;97.50;;;;;;4992382;28;20454;-67
2022/08/26 10:27:57;;;;;;;38.03;34.33;;;25.90;97.50;;;;;;4993438;28;20487;-67
2022/08/26 10:30:29;;;;;;;39.13;35.43;;;26.00;97.60;;;;;;5009754;28;20410;-67
2022/08/26 10:33:02;;;;;;;42.40;38.17;;;26.00;98.40;;;;;;5009708;28;20818;-67
2022/08/26 10:35:29;;;;;;;42.00;37.77;;;26.00;98.40;;;;;;5003249;28;20473;-67
2022/08/26 10:38:02;;;;;;;41.97;37.80;;;26.10;98.00;;;;;;5005335;28;20785;-67
2022/08/26 10:40:45;;;;;;;40.30;36.27;;;26.20;98.40;;;;;;5009004;28;20441;-67
2022/08/26 10:43:24;;;;;;;43.43;39.40;;;26.20;97.90;;;;;;5008234;28;20937;-67
2022/08/26 10:45:58;;;;;;;39.40;35.60;;;26.30;97.80;;;;;;5006134;28;20477;-68
2022/08/26 10:48:30;;;;;;;38.90;35.10;;;26.40;97.70;;;;;;5005563;28;20442;-66
2022/08/26 10:50:56;;;;;;;40.97;37.10;;;26.40;97.60;;;;;;5003691;28;20441;-67
2022/08/26 10:53:29;;;;;;;40.40;36.70;;;26.50;97.60;;;;;;5004154;28;20434;-67
2022/08/26 10:56:00;;;;;;;39.93;36.27;;;26.50;97.90;;;;;;5004747;28;20840;-69
2022/08/26 10:58:44;;;;;;;38.40;34.70;;;26.50;98.00;;;;;;5002978;28;20525;-68
2022/08/26 11:01:42;;;;;;;38.50;35.00;;;26.50;97.80;;;;;;5005252;28;20426;-71
2022/08/26 11:04:36;;;;;;;40.47;36.67;;;26.50;97.40;;;;;;5011776;28;20474;-70
2022/08/26 11:07:27;;;;;;;38.37;34.83;;;26.50;97.60;;;;;;5005189;28;20441;-67
2022/08/26 11:09:53;;;;;;;38.47;34.97;;;26.60;97.70;;;;;;5006209;28;20442;-68
2022/08/26 11:12:38;;;;;;;37.57;33.87;;;26.60;97.40;;;;;;5006842;28;20430;-67
2022/08/26 11:15:09;;;;;;;36.87;33.40;;;26.60;97.50;;;;;;4973731;28;20559;-67
2022/08/26 11:17:43;;;;;;;33.87;30.83;;;26.60;97.40;;;;;;5009302;28;20456;-66
2022/08/26 11:20:21;;;;;;;31.47;28.57;;;26.50;97.20;;;;;;5010351;28;20528;-66
2022/08/26 11:22:51;;;;;;;31.97;29.10;;;26.30;97.10;;;;;;5007320;28;20524;-66
2022/08/26 11:25:22;;;;;;;33.90;30.73;;;26.20;97.20;;;;;;5008316;28;20488;-66
2022/08/26 11:27:49;;;;;;;33.17;30.23;;;26.20;97.30;;;;;;5010507;28;20414;-67
2022/08/26 11:30:15;;;;;;;39.50;35.70;;;26.10;97.40;;;;;;5006616;28;20796;-66
2022/08/26 11:32:40;;;;;;;36.40;33.17;;;25.90;97.80;;;;;;4993915;28;20434;-66
2022/08/26 11:35:18;;;;;;;34.47;31.40;;;25.90;97.80;;;;;;5012082;28;20619;-66
2022/08/26 11:37:47;;;;;;;39.07;35.33;;;25.90;97.80;;;;;;5002212;28;20197;-67
2022/08/26 11:40:25;;;;;;;42.47;38.37;;;25.90;98.10;;;;;;5010599;28;20477;-67
2022/08/26 11:42:59;;;;;;;36.63;33.23;;;26.00;97.80;;;;;;5000473;28;20446;-68
2022/08/26 11:45:40;;;;;;;35.77;32.40;;;26.10;97.90;;;;;;5001662;28;20961;-66
2022/08/26 11:48:29;;;;;;;35.43;32.30;;;26.10;97.50;;;;;;5007317;28;20442;-69
2022/08/26 11:50:59;;;;;;;34.17;31.00;;;26.10;97.90;;;;;;5006844;28;20515;-67
2022/08/26 11:53:27;;;;;;;41.53;37.63;;;26.20;97.80;;;;;;5009331;28;20468;-66
2022/08/26 11:55:54;;;;;;;39.57;36.07;;;26.20;97.70;;;;;;4993630;28;20762;-66
2022/08/26 11:58:22;;;;;;;37.53;34.03;;;26.20;97.60;;;;;;4995136;28;20422;-66
2022/08/26 12:01:05;;;;;;;36.03;32.83;;;26.30;97.40;;;;;;5008857;28;20433;-66
2022/08/26 12:03:43;;;;;;;38.40;34.67;;;26.30;97.40;;;;;;5012327;28;20889;-66
2022/08/26 12:06:45;;;;;;;38.27;34.87;;;26.40;97.40;;;;;;5011012;28;20544;-66
2022/08/26 12:09:24;;;;;;;35.13;31.93;;;26.30;97.90;;;;;;4909257;29;20470;-66
2022/08/26 12:11:49;;;;;;;37.83;34.43;;;26.20;98.10;;;;;;4996791;28;20432;-65
2022/08/26 12:14:24;;;;;;;34.47;31.07;;;26.00;99.60;;;;;;5006322;28;20789;-68
2022/08/26 12:16:52;;;;;;;32.87;29.77;;;26.00;99.50;;;;;;5010823;28;20933;-64
2022/08/26 12:19:25;;;;;;;33.17;30.17;;;26.00;99.20;;;;;;5008844;28;20425;-67
2022/08/26 12:22:18;;;;;;;31.73;28.63;;;26.10;99.90;;;;;;5010910;28;20426;-68
2022/08/26 12:24:48;;;;;;;33.10;30.17;;;26.10;99.40;;;;;;4996552;28;20450;-67
2022/08/26 12:27:27;;;;;;;28.37;25.67;;;26.10;99.90;;;;;;5015278;28;20460;-67
2022/08/26 12:30:20;;;;;;;30.67;27.77;;;26.20;99.70;;;;;;4995337;28;20442;-67
2022/08/26 12:32:49;;;;;;;28.73;26.03;;;26.20;99.90;;;;;;4996099;28;20422;-67
2022/08/26 12:35:18;;;;;;;22.67;20.77;;;26.20;99.90;;;;;;4997795;28;20421;-68
2022/08/26 12:37:47;;;;;;;25.57;23.37;;;26.20;99.90;;;;;;5007290;28;20437;-68
2022/08/26 12:40:27;;;;;;;26.50;23.93;;;26.20;99.90;;;;;;5010837;28;20481;-67
2022/08/26 12:42:55;;;;;;;28.60;26.23;;;26.20;99.90;;;;;;5014346;28;20445;-66
2022/08/26 12:45:41;;;;;;;29.70;26.87;;;26.20;99.90;;;;;;5014268;28;20461;-66
2022/08/26 12:48:20;;;;;;;25.17;22.87;;;26.20;99.90;;;;;;4932212;29;21003;-67
2022/08/26 12:50:48;;;;;;;25.20;22.80;;;26.20;99.90;;;;;;4934060;29;20442;-67